sensor_id;sensor_type;location;lat;lon;timestamp;pressure;altitude;pressure_sealevel;temperature;humidity
33414;BME280;60055;41.884;12.534;2023-09-30T00:02:24;101444.97;;;22.04;53.92
33414;BME280;60055;41.884;12.534;2023-09-30T00:04:50;101444.31;;;22.13;53.67
33414;BME280;60055;41.884;12.534;2023-09-30T00:07:15;101443.91;;;21.94;54.60
33414;BME280;60055;41.884;12.534;2023-09-30T00:09:41;101446.28;;;21.99;54.88
33414;BME280;60055;41.884;12.534;2023-09-30T00:12:06;101445.16;;;22.14;54.18
33414;BME280;60055;41.884;12.534;2023-09-30T00:14:32;101442.47;;;22.14;53.91
33414;BME280;60055;41.884;12.534;2023-09-30T00:16:57;101440.44;;;22.05;53.74
33414;BME280;60055;41.884;12.534;2023-09-30T00:19:23;101444.53;;;21.85;53.88
33414;BME280;60055;41.884;12.534;2023-09-30T00:21:48;101448.22;;;21.71;54.55
33414;BME280;60055;41.884;12.534;2023-09-30T00:24:14;101452.09;;;21.42;55.92
33414;BME280;60055;41.884;12.534;2023-09-30T00:26:39;101450.13;;;21.57;55.76
33414;BME280;60055;41.884;12.534;2023-09-30T00:29:05;101445.19;;;21.51;55.71
33414;BME280;60055;41.884;12.534;2023-09-30T00:31:31;101440.38;;;21.56;56.13
33414;BME280;60055;41.884;12.534;2023-09-30T00:33:57;101438.00;;;21.51;55.31
33414;BME280;60055;41.884;12.534;2023-09-30T00:36:22;101437.25;;;21.49;54.76
33414;BME280;60055;41.884;12.534;2023-09-30T00:38:48;101445.72;;;21.43;55.04
33414;BME280;60055;41.884;12.534;2023-09-30T00:41:13;101444.44;;;21.36;55.04
33414;BME280;60055;41.884;12.534;2023-09-30T00:43:39;101440.56;;;21.40;54.13
33414;BME280;60055;41.884;12.534;2023-09-30T00:46:31;101437.13;;;21.51;53.87
33414;BME280;60055;41.884;12.534;2023-09-30T00:48:58;101434.44;;;21.63;53.40
33414;BME280;60055;41.884;12.534;2023-09-30T00:51:25;101437.03;;;21.65;53.12
33414;BME280;60055;41.884;12.534;2023-09-30T00:53:52;101439.59;;;21.54;53.53
33414;BME280;60055;41.884;12.534;2023-09-30T00:56:19;101427.81;;;21.56;53.21
33414;BME280;60055;41.884;12.534;2023-09-30T00:58:47;101431.88;;;21.62;53.62
33414;BME280;60055;41.884;12.534;2023-09-30T01:01:16;101437.91;;;21.53;53.74
33414;BME280;60055;41.884;12.534;2023-09-30T01:03:41;101439.41;;;21.44;54.46
33414;BME280;60055;41.884;12.534;2023-09-30T01:06:07;101440.03;;;21.48;54.19
33414;BME280;60055;41.884;12.534;2023-09-30T01:08:33;101427.78;;;21.44;54.40
33414;BME280;60055;41.884;12.534;2023-09-30T01:10:59;101432.41;;;21.42;54.31
33414;BME280;60055;41.884;12.534;2023-09-30T01:13:32;101437.78;;;21.42;54.86
33414;BME280;60055;41.884;12.534;2023-09-30T01:15:58;101431.47;;;21.43;54.79
33414;BME280;60055;41.884;12.534;2023-09-30T01:18:24;101428.38;;;21.09;55.06
33414;BME280;60055;41.884;12.534;2023-09-30T01:20:51;101434.78;;;20.94;55.76
33414;BME280;60055;41.884;12.534;2023-09-30T01:23:17;101427.13;;;21.15;54.90
33414;BME280;60055;41.884;12.534;2023-09-30T01:25:44;101426.72;;;21.21;54.53
33414;BME280;60055;41.884;12.534;2023-09-30T01:28:09;101437.22;;;21.24;54.80
33414;BME280;60055;41.884;12.534;2023-09-30T01:30:35;101424.06;;;21.07;54.72
33414;BME280;60055;41.884;12.534;2023-09-30T01:33:01;101426.09;;;21.03;54.38
33414;BME280;60055;41.884;12.534;2023-09-30T01:35:26;101427.28;;;20.99;55.17
33414;BME280;60055;41.884;12.534;2023-09-30T01:37:52;101433.06;;;20.93;55.08
33414;BME280;60055;41.884;12.534;2023-09-30T01:40:17;101427.75;;;20.79;55.36
33414;BME280;60055;41.884;12.534;2023-09-30T01:42:43;101425.44;;;20.87;55.46
33414;BME280;60055;41.884;12.534;2023-09-30T01:45:09;101425.94;;;20.79;55.68
33414;BME280;60055;41.884;12.534;2023-09-30T01:47:35;101428.41;;;20.82;55.72
33414;BME280;60055;41.884;12.534;2023-09-30T01:50:01;101422.56;;;20.63;56.07
33414;BME280;60055;41.884;12.534;2023-09-30T01:52:26;101419.44;;;20.57;56.16
33414;BME280;60055;41.884;12.534;2023-09-30T01:54:52;101425.56;;;20.59;56.61
33414;BME280;60055;41.884;12.534;2023-09-30T01:57:19;101425.72;;;20.70;56.00
33414;BME280;60055;41.884;12.534;2023-09-30T01:59:44;101424.25;;;20.78;55.52
33414;BME280;60055;41.884;12.534;2023-09-30T02:02:10;101425.16;;;20.65;56.35
33414;BME280;60055;41.884;12.534;2023-09-30T02:04:35;101426.94;;;20.78;55.86
33414;BME280;60055;41.884;12.534;2023-09-30T02:07:01;101423.41;;;20.90;55.55
33414;BME280;60055;41.884;12.534;2023-09-30T02:09:26;101425.56;;;20.98;55.36
33414;BME280;60055;41.884;12.534;2023-09-30T02:11:51;101421.47;;;20.92;54.79
33414;BME280;60055;41.884;12.534;2023-09-30T02:14:17;101419.75;;;20.92;55.42
33414;BME280;60055;41.884;12.534;2023-09-30T02:16:42;101413.31;;;21.07;55.14
33414;BME280;60055;41.884;12.534;2023-09-30T02:19:07;101414.41;;;20.92;54.79
33414;BME280;60055;41.884;12.534;2023-09-30T02:21:36;101422.75;;;20.87;54.98
33414;BME280;60055;41.884;12.534;2023-09-30T02:24:01;101419.63;;;20.93;55.48
33414;BME280;60055;41.884;12.534;2023-09-30T02:26:27;101431.03;;;20.97;54.91
33414;BME280;60055;41.884;12.534;2023-09-30T02:28:54;101420.09;;;21.00;54.68
33414;BME280;60055;41.884;12.534;2023-09-30T02:31:19;101432.91;;;21.09;55.15
33414;BME280;60055;41.884;12.534;2023-09-30T02:33:45;101428.13;;;21.00;55.14
33414;BME280;60055;41.884;12.534;2023-09-30T02:36:10;101428.78;;;21.03;55.24
33414;BME280;60055;41.884;12.534;2023-09-30T02:38:38;101445.38;;;21.10;55.33
33414;BME280;60055;41.884;12.534;2023-09-30T02:41:04;101441.72;;;21.11;53.99
33414;BME280;60055;41.884;12.534;2023-09-30T02:43:29;101440.69;;;20.99;54.54
33414;BME280;60055;41.884;12.534;2023-09-30T02:45:55;101427.19;;;21.01;54.82
33414;BME280;60055;41.884;12.534;2023-09-30T02:48:20;101435.50;;;21.10;53.60
33414;BME280;60055;41.884;12.534;2023-09-30T02:50:46;101437.34;;;20.96;54.14
33414;BME280;60055;41.884;12.534;2023-09-30T02:53:12;101430.91;;;20.85;54.55
33414;BME280;60055;41.884;12.534;2023-09-30T02:55:43;101429.63;;;20.78;54.69
33414;BME280;60055;41.884;12.534;2023-09-30T02:58:08;101436.16;;;20.74;54.96
33414;BME280;60055;41.884;12.534;2023-09-30T03:00:37;101431.13;;;20.56;54.81
33414;BME280;60055;41.884;12.534;2023-09-30T03:03:03;101435.03;;;20.23;55.95
33414;BME280;60055;41.884;12.534;2023-09-30T03:05:30;101431.91;;;20.31;56.28
33414;BME280;60055;41.884;12.534;2023-09-30T03:07:58;101425.06;;;20.39;55.75
33414;BME280;60055;41.884;12.534;2023-09-30T03:10:25;101429.00;;;20.34;56.61
33414;BME280;60055;41.884;12.534;2023-09-30T03:12:52;101427.13;;;20.49;55.58
33414;BME280;60055;41.884;12.534;2023-09-30T03:15:18;101426.91;;;20.52;54.97
33414;BME280;60055;41.884;12.534;2023-09-30T03:17:44;101429.59;;;20.52;55.30
33414;BME280;60055;41.884;12.534;2023-09-30T03:20:10;101429.06;;;20.47;55.00
33414;BME280;60055;41.884;12.534;2023-09-30T03:22:43;101432.50;;;20.49;54.35
33414;BME280;60055;41.884;12.534;2023-09-30T03:25:10;101427.34;;;20.46;54.57
33414;BME280;60055;41.884;12.534;2023-09-30T03:27:37;101430.22;;;20.43;55.01
33414;BME280;60055;41.884;12.534;2023-09-30T03:30:07;101428.50;;;20.42;54.37
33414;BME280;60055;41.884;12.534;2023-09-30T03:32:33;101413.78;;;20.34;54.82
33414;BME280;60055;41.884;12.534;2023-09-30T03:35:02;101430.09;;;20.03;55.56
33414;BME280;60055;41.884;12.534;2023-09-30T03:37:27;101414.66;;;20.21;54.53
33414;BME280;60055;41.884;12.534;2023-09-30T03:39:56;101420.19;;;20.32;54.09
33414;BME280;60055;41.884;12.534;2023-09-30T03:42:23;101421.34;;;20.28;54.39
33414;BME280;60055;41.884;12.534;2023-09-30T03:44:48;101420.31;;;20.16;54.77
33414;BME280;60055;41.884;12.534;2023-09-30T03:47:18;101414.81;;;20.32;54.45
33414;BME280;60055;41.884;12.534;2023-09-30T03:49:43;101418.75;;;20.26;54.78
33414;BME280;60055;41.884;12.534;2023-09-30T03:52:09;101418.84;;;20.25;54.83
33414;BME280;60055;41.884;12.534;2023-09-30T03:54:36;101416.97;;;20.27;54.50
33414;BME280;60055;41.884;12.534;2023-09-30T03:57:03;101416.16;;;20.25;54.57
33414;BME280;60055;41.884;12.534;2023-09-30T03:59:29;101420.72;;;20.10;54.97
33414;BME280;60055;41.884;12.534;2023-09-30T04:01:54;101425.91;;;19.85;55.59
33414;BME280;60055;41.884;12.534;2023-09-30T04:04:20;101417.97;;;19.83;55.84
33414;BME280;60055;41.884;12.534;2023-09-30T04:06:46;101421.69;;;19.81;55.49
33414;BME280;60055;41.884;12.534;2023-09-30T04:09:13;101425.16;;;19.83;56.21
33414;BME280;60055;41.884;12.534;2023-09-30T04:11:39;101419.59;;;19.86;55.72
33414;BME280;60055;41.884;12.534;2023-09-30T04:14:05;101415.84;;;19.74;55.73
33414;BME280;60055;41.884;12.534;2023-09-30T04:16:32;101422.34;;;19.70;56.55
33414;BME280;60055;41.884;12.534;2023-09-30T04:18:57;101422.00;;;19.62;56.40
33414;BME280;60055;41.884;12.534;2023-09-30T04:21:23;101422.34;;;19.70;56.37
33414;BME280;60055;41.884;12.534;2023-09-30T04:23:48;101423.53;;;19.52;56.60
33414;BME280;60055;41.884;12.534;2023-09-30T04:26:14;101429.38;;;19.59;56.99
33414;BME280;60055;41.884;12.534;2023-09-30T04:28:40;101432.59;;;19.64;56.00
33414;BME280;60055;41.884;12.534;2023-09-30T04:31:05;101435.59;;;19.59;56.73
33414;BME280;60055;41.884;12.534;2023-09-30T04:33:33;101435.19;;;19.65;56.11
33414;BME280;60055;41.884;12.534;2023-09-30T04:36:01;101439.31;;;19.71;56.27
33414;BME280;60055;41.884;12.534;2023-09-30T04:38:27;101449.53;;;19.64;55.92
33414;BME280;60055;41.884;12.534;2023-09-30T04:40:52;101451.47;;;19.62;56.69
33414;BME280;60055;41.884;12.534;2023-09-30T04:43:19;101449.81;;;19.74;56.73
33414;BME280;60055;41.884;12.534;2023-09-30T04:45:46;101451.66;;;19.73;56.40
33414;BME280;60055;41.884;12.534;2023-09-30T04:48:12;101443.25;;;19.79;55.77
33414;BME280;60055;41.884;12.534;2023-09-30T04:50:39;101448.13;;;19.73;56.43
33414;BME280;60055;41.884;12.534;2023-09-30T04:53:05;101456.34;;;19.84;55.83
33414;BME280;60055;41.884;12.534;2023-09-30T04:55:30;101452.63;;;19.72;56.05
33414;BME280;60055;41.884;12.534;2023-09-30T04:57:56;101449.16;;;19.84;55.89
33414;BME280;60055;41.884;12.534;2023-09-30T05:00:21;101451.16;;;19.81;55.86
33414;BME280;60055;41.884;12.534;2023-09-30T05:02:55;101455.84;;;19.77;55.77
33414;BME280;60055;41.884;12.534;2023-09-30T05:05:21;101462.75;;;19.67;56.47
33414;BME280;60055;41.884;12.534;2023-09-30T05:07:46;101458.44;;;19.79;56.11
33414;BME280;60055;41.884;12.534;2023-09-30T05:10:13;101468.41;;;19.63;56.45
33414;BME280;60055;41.884;12.534;2023-09-30T05:12:44;101463.81;;;19.65;55.92
33414;BME280;60055;41.884;12.534;2023-09-30T05:15:13;101459.78;;;19.72;56.14
33414;BME280;60055;41.884;12.534;2023-09-30T05:17:43;101467.06;;;19.56;57.00
33414;BME280;60055;41.884;12.534;2023-09-30T05:20:10;101464.84;;;19.48;56.44
33414;BME280;60055;41.884;12.534;2023-09-30T05:22:37;101469.72;;;19.42;56.75
33414;BME280;60055;41.884;12.534;2023-09-30T05:25:04;101475.06;;;19.42;56.92
33414;BME280;60055;41.884;12.534;2023-09-30T05:27:30;101467.44;;;19.50;56.57
33414;BME280;60055;41.884;12.534;2023-09-30T05:29:55;101466.97;;;19.43;57.70
33414;BME280;60055;41.884;12.534;2023-09-30T05:32:21;101462.09;;;19.34;57.08
33414;BME280;60055;41.884;12.534;2023-09-30T05:34:47;101468.47;;;19.47;56.87
33414;BME280;60055;41.884;12.534;2023-09-30T05:37:13;101469.94;;;19.37;56.93
33414;BME280;60055;41.884;12.534;2023-09-30T05:39:39;101467.28;;;19.37;57.45
33414;BME280;60055;41.884;12.534;2023-09-30T05:42:05;101474.63;;;19.33;56.97
33414;BME280;60055;41.884;12.534;2023-09-30T05:44:32;101478.25;;;19.48;57.06
33414;BME280;60055;41.884;12.534;2023-09-30T05:46:57;101480.47;;;19.40;56.61
33414;BME280;60055;41.884;12.534;2023-09-30T05:49:25;101483.59;;;19.48;56.80
33414;BME280;60055;41.884;12.534;2023-09-30T05:51:50;101478.97;;;19.36;57.19
33414;BME280;60055;41.884;12.534;2023-09-30T05:54:16;101483.28;;;19.38;56.54
33414;BME280;60055;41.884;12.534;2023-09-30T05:56:41;101486.31;;;19.62;56.59
33414;BME280;60055;41.884;12.534;2023-09-30T05:59:10;101485.94;;;19.38;56.43
33414;BME280;60055;41.884;12.534;2023-09-30T06:01:36;101479.81;;;19.66;56.40
33414;BME280;60055;41.884;12.534;2023-09-30T06:04:02;101476.63;;;19.74;55.80
33414;BME280;60055;41.884;12.534;2023-09-30T06:06:28;101482.19;;;19.85;55.47
33414;BME280;60055;41.884;12.534;2023-09-30T06:08:56;101480.06;;;20.04;55.14
33414;BME280;60055;41.884;12.534;2023-09-30T06:11:25;101490.41;;;20.10;54.46
33414;BME280;60055;41.884;12.534;2023-09-30T06:13:57;101485.41;;;20.18;53.98
33414;BME280;60055;41.884;12.534;2023-09-30T06:16:26;101491.56;;;20.34;53.94
33414;BME280;60055;41.884;12.534;2023-09-30T06:18:54;101484.81;;;20.42;54.10
33414;BME280;60055;41.884;12.534;2023-09-30T06:21:21;101492.50;;;20.74;53.34
33414;BME280;60055;41.884;12.534;2023-09-30T06:23:47;101492.84;;;20.82;52.13
33414;BME280;60055;41.884;12.534;2023-09-30T06:26:14;101495.41;;;20.71;52.73
33414;BME280;60055;41.884;12.534;2023-09-30T06:28:40;101501.28;;;20.64;53.14
33414;BME280;60055;41.884;12.534;2023-09-30T06:31:08;101504.41;;;20.97;52.56
33414;BME280;60055;41.884;12.534;2023-09-30T06:33:35;101503.94;;;21.17;52.26
33414;BME280;60055;41.884;12.534;2023-09-30T06:36:01;101498.44;;;21.58;51.38
33414;BME280;60055;41.884;12.534;2023-09-30T06:38:28;101499.06;;;21.74;51.20
33414;BME280;60055;41.884;12.534;2023-09-30T06:40:53;101498.88;;;21.90;49.94
33414;BME280;60055;41.884;12.534;2023-09-30T06:43:19;101491.41;;;22.19;49.90
33414;BME280;60055;41.884;12.534;2023-09-30T06:45:46;101494.50;;;22.38;49.31
33414;BME280;60055;41.884;12.534;2023-09-30T06:48:12;101491.47;;;22.42;48.61
33414;BME280;60055;41.884;12.534;2023-09-30T06:50:48;101489.13;;;22.62;48.40
33414;BME280;60055;41.884;12.534;2023-09-30T06:53:18;101487.53;;;22.23;48.79
33414;BME280;60055;41.884;12.534;2023-09-30T06:55:49;101494.97;;;22.19;48.83
33414;BME280;60055;41.884;12.534;2023-09-30T06:58:16;101496.13;;;22.40;48.95
33414;BME280;60055;41.884;12.534;2023-09-30T07:00:47;101505.88;;;22.78;48.57
33414;BME280;60055;41.884;12.534;2023-09-30T07:03:12;101507.13;;;22.74;47.70
33414;BME280;60055;41.884;12.534;2023-09-30T07:05:40;101508.19;;;22.71;47.73
33414;BME280;60055;41.884;12.534;2023-09-30T07:08:06;101508.81;;;22.99;46.92
33414;BME280;60055;41.884;12.534;2023-09-30T07:10:31;101508.09;;;23.55;46.35
33414;BME280;60055;41.884;12.534;2023-09-30T07:12:57;101509.31;;;23.62;45.86
33414;BME280;60055;41.884;12.534;2023-09-30T07:15:22;101518.25;;;23.52;45.56
33414;BME280;60055;41.884;12.534;2023-09-30T07:17:48;101516.16;;;22.97;46.69
33414;BME280;60055;41.884;12.534;2023-09-30T07:20:14;101526.22;;;22.95;46.59
33414;BME280;60055;41.884;12.534;2023-09-30T07:22:40;101531.06;;;22.89;47.20
33414;BME280;60055;41.884;12.534;2023-09-30T07:25:06;101527.88;;;23.43;46.01
33414;BME280;60055;41.884;12.534;2023-09-30T07:27:32;101532.94;;;23.48;46.17
33414;BME280;60055;41.884;12.534;2023-09-30T07:29:57;101528.03;;;23.53;45.93
33414;BME280;60055;41.884;12.534;2023-09-30T07:32:23;101525.88;;;23.34;46.48
33414;BME280;60055;41.884;12.534;2023-09-30T07:34:49;101530.91;;;23.73;45.40
33414;BME280;60055;41.884;12.534;2023-09-30T07:37:15;101530.50;;;24.13;44.66
33414;BME280;60055;41.884;12.534;2023-09-30T07:39:42;101537.34;;;24.17;44.51
33414;BME280;60055;41.884;12.534;2023-09-30T07:42:09;101536.72;;;24.02;44.88
33414;BME280;60055;41.884;12.534;2023-09-30T07:44:34;101551.06;;;24.03;44.89
33414;BME280;60055;41.884;12.534;2023-09-30T07:47:03;101544.47;;;24.18;44.47
33414;BME280;60055;41.884;12.534;2023-09-30T07:49:35;101538.06;;;24.63;43.49
33414;BME280;60055;41.884;12.534;2023-09-30T07:52:00;101539.47;;;25.01;42.37
33414;BME280;60055;41.884;12.534;2023-09-30T07:54:25;101554.53;;;25.14;42.23
33414;BME280;60055;41.884;12.534;2023-09-30T07:56:52;101549.31;;;25.22;42.38
33414;BME280;60055;41.884;12.534;2023-09-30T07:59:17;101558.41;;;24.67;42.98
33414;BME280;60055;41.884;12.534;2023-09-30T08:01:43;101556.81;;;24.65;43.67
33414;BME280;60055;41.884;12.534;2023-09-30T08:04:08;101559.66;;;24.63;44.45
33414;BME280;60055;41.884;12.534;2023-09-30T08:06:34;101553.75;;;24.58;44.10
33414;BME280;60055;41.884;12.534;2023-09-30T08:08:59;101557.34;;;24.48;44.18
33414;BME280;60055;41.884;12.534;2023-09-30T08:11:25;101567.31;;;24.36;43.80
33414;BME280;60055;41.884;12.534;2023-09-30T08:13:56;101566.91;;;24.63;44.00
33414;BME280;60055;41.884;12.534;2023-09-30T08:16:21;101570.88;;;25.02;43.48
33414;BME280;60055;41.884;12.534;2023-09-30T08:18:47;101564.97;;;25.39;42.57
33414;BME280;60055;41.884;12.534;2023-09-30T08:21:12;101570.97;;;25.75;42.24
33414;BME280;60055;41.884;12.534;2023-09-30T08:23:38;101567.38;;;25.22;42.76
33414;BME280;60055;41.884;12.534;2023-09-30T08:26:07;101565.69;;;25.73;41.72
33414;BME280;60055;41.884;12.534;2023-09-30T08:28:32;101573.09;;;25.39;42.05
33414;BME280;60055;41.884;12.534;2023-09-30T08:31:05;101565.75;;;25.62;41.74
33414;BME280;60055;41.884;12.534;2023-09-30T08:33:32;101569.91;;;26.08;41.12
33414;BME280;60055;41.884;12.534;2023-09-30T08:36:04;101553.97;;;26.45;40.06
33414;BME280;60055;41.884;12.534;2023-09-30T08:38:37;101549.66;;;26.72;39.34
33414;BME280;60055;41.884;12.534;2023-09-30T08:41:03;101557.50;;;26.75;39.43
33414;BME280;60055;41.884;12.534;2023-09-30T08:43:30;101555.13;;;27.01;38.60
33414;BME280;60055;41.884;12.534;2023-09-30T08:46:02;101553.88;;;27.15;38.00
33414;BME280;60055;41.884;12.534;2023-09-30T08:48:28;101562.28;;;27.02;38.88
33414;BME280;60055;41.884;12.534;2023-09-30T08:50:54;101561.16;;;27.33;38.60
33414;BME280;60055;41.884;12.534;2023-09-30T08:53:20;101551.19;;;27.34;37.94
33414;BME280;60055;41.884;12.534;2023-09-30T08:55:46;101549.88;;;27.19;38.07
33414;BME280;60055;41.884;12.534;2023-09-30T08:58:13;101549.75;;;27.39;37.86
33414;BME280;60055;41.884;12.534;2023-09-30T09:00:39;101549.31;;;27.15;38.42
33414;BME280;60055;41.884;12.534;2023-09-30T09:03:07;101551.16;;;27.43;37.14
33414;BME280;60055;41.884;12.534;2023-09-30T09:05:32;101553.88;;;27.63;37.72
33414;BME280;60055;41.884;12.534;2023-09-30T09:07:58;101544.31;;;27.39;37.59
33414;BME280;60055;41.884;12.534;2023-09-30T09:10:23;101551.59;;;27.20;38.07
33414;BME280;60055;41.884;12.534;2023-09-30T09:12:56;101541.53;;;26.72;39.66
33414;BME280;60055;41.884;12.534;2023-09-30T09:15:27;101544.84;;;26.85;39.34
33414;BME280;60055;41.884;12.534;2023-09-30T09:17:54;101546.13;;;26.81;39.13
33414;BME280;60055;41.884;12.534;2023-09-30T09:20:21;101549.78;;;26.71;39.77
33414;BME280;60055;41.884;12.534;2023-09-30T09:22:50;101550.16;;;27.16;38.61
33414;BME280;60055;41.884;12.534;2023-09-30T09:25:17;101547.69;;;26.84;39.14
33414;BME280;60055;41.884;12.534;2023-09-30T09:27:43;101543.31;;;27.02;39.05
33414;BME280;60055;41.884;12.534;2023-09-30T09:30:15;101541.63;;;27.20;38.48
33414;BME280;60055;41.884;12.534;2023-09-30T09:32:55;101540.63;;;27.40;38.25
33414;BME280;60055;41.884;12.534;2023-09-30T09:35:21;101538.63;;;27.23;38.41
33414;BME280;60055;41.884;12.534;2023-09-30T09:40:27;101527.59;;;26.47;39.87
33414;BME280;60055;41.884;12.534;2023-09-30T09:42:54;101527.63;;;26.96;38.68
33414;BME280;60055;41.884;12.534;2023-09-30T09:45:22;101530.03;;;26.89;39.07
33414;BME280;60055;41.884;12.534;2023-09-30T09:47:51;101522.88;;;26.88;39.10
33414;BME280;60055;41.884;12.534;2023-09-30T09:50:18;101514.91;;;27.16;38.62
33414;BME280;60055;41.884;12.534;2023-09-30T09:52:52;101517.31;;;27.28;38.38
33414;BME280;60055;41.884;12.534;2023-09-30T09:55:19;101506.22;;;27.12;38.93
33414;BME280;60055;41.884;12.534;2023-09-30T09:57:47;101506.34;;;27.01;38.97
33414;BME280;60055;41.884;12.534;2023-09-30T10:00:16;101508.47;;;26.98;39.23
33414;BME280;60055;41.884;12.534;2023-09-30T10:02:44;101508.75;;;26.95;39.25
33414;BME280;60055;41.884;12.534;2023-09-30T10:05:12;101503.91;;;26.98;39.03
33414;BME280;60055;41.884;12.534;2023-09-30T10:07:45;101491.75;;;26.73;39.48
33414;BME280;60055;41.884;12.534;2023-09-30T10:10:18;101494.88;;;26.78;39.54
33414;BME280;60055;41.884;12.534;2023-09-30T10:12:44;101493.94;;;26.99;39.51
33414;BME280;60055;41.884;12.534;2023-09-30T10:18:03;101495.06;;;27.15;39.31
33414;BME280;60055;41.884;12.534;2023-09-30T10:20:30;101492.81;;;27.20;39.42
33414;BME280;60055;41.884;12.534;2023-09-30T10:25:48;101491.22;;;27.27;39.34
33414;BME280;60055;41.884;12.534;2023-09-30T10:28:33;101489.19;;;27.39;38.89
33414;BME280;60055;41.884;12.534;2023-09-30T10:33:35;101492.63;;;27.22;38.99
33414;BME280;60055;41.884;12.534;2023-09-30T10:36:01;101482.66;;;27.13;39.06
33414;BME280;60055;41.884;12.534;2023-09-30T10:38:46;101490.38;;;27.17;39.14
33414;BME280;60055;41.884;12.534;2023-09-30T10:47:00;101485.50;;;27.21;38.60
33414;BME280;60055;41.884;12.534;2023-09-30T10:51:58;101484.63;;;27.11;38.44
33414;BME280;60055;41.884;12.534;2023-09-30T10:54:32;101481.50;;;27.25;37.85
33414;BME280;60055;41.884;12.534;2023-09-30T10:56:59;101476.91;;;27.35;38.11
33414;BME280;60055;41.884;12.534;2023-09-30T10:59:27;101465.25;;;27.44;38.01
33414;BME280;60055;41.884;12.534;2023-09-30T11:01:52;101469.81;;;27.34;38.07
33414;BME280;60055;41.884;12.534;2023-09-30T11:04:19;101471.78;;;27.51;37.55
33414;BME280;60055;41.884;12.534;2023-09-30T11:06:45;101464.97;;;27.47;36.45
33414;BME280;60055;41.884;12.534;2023-09-30T11:09:19;101466.06;;;27.35;36.66
33414;BME280;60055;41.884;12.534;2023-09-30T11:11:47;101460.97;;;27.22;37.40
33414;BME280;60055;41.884;12.534;2023-09-30T11:14:31;101463.34;;;27.35;37.32
33414;BME280;60055;41.884;12.534;2023-09-30T11:17:03;101456.50;;;27.40;37.43
33414;BME280;60055;41.884;12.534;2023-09-30T11:19:36;101451.78;;;27.52;37.04
33414;BME280;60055;41.884;12.534;2023-09-30T11:22:02;101453.06;;;27.38;37.17
33414;BME280;60055;41.884;12.534;2023-09-30T11:24:28;101463.78;;;27.59;37.30
33414;BME280;60055;41.884;12.534;2023-09-30T11:26:54;101458.00;;;27.72;36.80
33414;BME280;60055;41.884;12.534;2023-09-30T11:29:23;101454.91;;;27.67;36.64
33414;BME280;60055;41.884;12.534;2023-09-30T11:31:49;101460.75;;;27.62;36.98
33414;BME280;60055;41.884;12.534;2023-09-30T11:34:16;101459.59;;;27.65;37.17
33414;BME280;60055;41.884;12.534;2023-09-30T11:36:52;101459.59;;;27.65;37.19
33414;BME280;60055;41.884;12.534;2023-09-30T11:39:22;101458.00;;;27.72;37.19
33414;BME280;60055;41.884;12.534;2023-09-30T11:41:49;101464.84;;;27.76;37.09
33414;BME280;60055;41.884;12.534;2023-09-30T11:44:14;101453.34;;;27.64;37.08
33414;BME280;60055;41.884;12.534;2023-09-30T11:46:51;101451.88;;;27.70;37.48
33414;BME280;60055;41.884;12.534;2023-09-30T11:51:54;101446.03;;;27.65;36.91
33414;BME280;60055;41.884;12.534;2023-09-30T11:54:19;101439.00;;;27.81;36.91
33414;BME280;60055;41.884;12.534;2023-09-30T11:56:45;101435.97;;;27.84;36.33
33414;BME280;60055;41.884;12.534;2023-09-30T11:59:12;101438.19;;;27.99;36.46
33414;BME280;60055;41.884;12.534;2023-09-30T12:01:38;101429.47;;;28.05;36.16
33414;BME280;60055;41.884;12.534;2023-09-30T12:04:04;101421.91;;;28.08;36.46
33414;BME280;60055;41.884;12.534;2023-09-30T12:06:29;101433.31;;;28.02;36.50
33414;BME280;60055;41.884;12.534;2023-09-30T12:08:55;101430.53;;;28.21;36.52
33414;BME280;60055;41.884;12.534;2023-09-30T12:11:20;101423.94;;;28.24;36.74
33414;BME280;60055;41.884;12.534;2023-09-30T12:13:49;101419.19;;;28.26;36.35
33414;BME280;60055;41.884;12.534;2023-09-30T12:16:18;101418.38;;;28.43;35.90
33414;BME280;60055;41.884;12.534;2023-09-30T12:18:44;101408.75;;;28.31;36.66
33414;BME280;60055;41.884;12.534;2023-09-30T12:21:10;101409.28;;;28.34;36.51
33414;BME280;60055;41.884;12.534;2023-09-30T12:23:37;101414.34;;;28.47;36.20
33414;BME280;60055;41.884;12.534;2023-09-30T12:26:02;101401.16;;;28.52;36.13
33414;BME280;60055;41.884;12.534;2023-09-30T12:28:31;101398.19;;;28.63;36.20
33414;BME280;60055;41.884;12.534;2023-09-30T12:30:58;101386.28;;;28.74;36.03
33414;BME280;60055;41.884;12.534;2023-09-30T12:33:23;101391.44;;;29.03;35.62
33414;BME280;60055;41.884;12.534;2023-09-30T12:35:49;101386.03;;;28.67;36.80
33414;BME280;60055;41.884;12.534;2023-09-30T12:38:14;101385.97;;;28.77;36.48
33414;BME280;60055;41.884;12.534;2023-09-30T12:40:41;101380.19;;;28.98;36.56
33414;BME280;60055;41.884;12.534;2023-09-30T12:43:09;101387.34;;;28.81;36.29
33414;BME280;60055;41.884;12.534;2023-09-30T12:45:35;101378.84;;;28.76;36.42
33414;BME280;60055;41.884;12.534;2023-09-30T12:48:02;101383.91;;;28.97;36.49
33414;BME280;60055;41.884;12.534;2023-09-30T12:50:27;101385.88;;;28.86;35.99
33414;BME280;60055;41.884;12.534;2023-09-30T12:52:53;101384.84;;;29.05;35.16
33414;BME280;60055;41.884;12.534;2023-09-30T12:55:18;101382.03;;;28.97;35.77
33414;BME280;60055;41.884;12.534;2023-09-30T12:57:44;101383.50;;;29.09;35.65
33414;BME280;60055;41.884;12.534;2023-09-30T13:00:10;101387.34;;;29.24;35.47
33414;BME280;60055;41.884;12.534;2023-09-30T13:02:35;101370.13;;;29.16;37.62